Terminal Aerodrome Forecast
Issued by NWS

Home | Current Version | Previous Version | Text Only | Print | Product List | Glossary Off
Versions: 1 2 3 4 5 6 7 8 9 10 11 12 13 14 15 16 17

000
FTUS43 KFGF 192328
TAFBJI
TAF
KBJI 192328Z 2000/2024 17008KT P6SM FEW130
     FM200100 17008KT 4SM BR SCT015
     FM200200 17008KT 3/4SM BR SCT008
     FM200400 16007KT 1/2SM FG BKN003
     FM201600 13005KT 1SM BR OVC003
     FM201800 14006KT P6SM OVC003=

USA.gov is the U.S. government's official web portal to all federal, state and local government web resources and services.